Time;durP1;ratioP1;P1;durP2;ratioP2;P2;SDS_P1;SDS_P2;PMS_P1;PMS_P2;Temp;Humidity;BMP_temperature;BMP_pressure;BME280_temperature;BME280_humidity;BME280_pressure;Samples;Min_cycle;Max_cycle;Signal;HPM_P1;HPM_P2
2021/03/01 00:01:02;;;;;;;19.23;12.73;;;3.70;99.90;;;;;;5014632;28;20394;-73
2021/03/01 00:03:28;;;;;;;19.58;12.93;;;3.70;99.90;;;;;;5018509;28;20022;-73
2021/03/01 00:05:54;;;;;;;16.95;11.88;;;3.70;99.90;;;;;;5020486;28;20485;-73
2021/03/01 00:08:19;;;;;;;15.57;11.77;;;3.70;99.90;;;;;;5014375;28;20065;-73
2021/03/01 00:10:45;;;;;;;17.15;13.07;;;3.70;99.90;;;;;;5015922;28;20072;-73
2021/03/01 00:13:10;;;;;;;19.70;12.68;;;3.60;99.90;;;;;;5015764;28;20029;-73
2021/03/01 00:15:36;;;;;;;24.65;13.88;;;3.60;99.90;;;;;;5017177;28;20030;-73
2021/03/01 00:18:02;;;;;;;20.27;13.60;;;3.60;99.90;;;;;;5018448;28;20080;-73
2021/03/01 00:20:27;;;;;;;19.23;12.57;;;3.60;99.90;;;;;;5021975;28;20033;-72
2021/03/01 00:22:53;;;;;;;20.38;12.15;;;3.60;99.90;;;;;;5014944;28;20026;-73
2021/03/01 00:25:18;;;;;;;21.90;13.45;;;3.60;99.90;;;;;;5014869;28;20596;-73
2021/03/01 00:27:44;;;;;;;18.67;12.43;;;3.60;99.90;;;;;;5014876;28;20029;-73
2021/03/01 00:30:10;;;;;;;22.95;12.60;;;3.50;99.90;;;;;;5014486;28;20117;-73
2021/03/01 00:32:36;;;;;;;19.33;12.23;;;3.50;99.90;;;;;;5014965;28;20080;-73
2021/03/01 00:35:05;;;;;;;21.38;13.70;;;3.50;99.90;;;;;;5014721;28;20029;-73
2021/03/01 00:37:30;;;;;;;22.27;12.85;;;3.50;99.90;;;;;;5014035;28;20108;-74
2021/03/01 00:39:56;;;;;;;17.55;12.20;;;3.50;99.90;;;;;;5014582;28;20022;-73
2021/03/01 00:42:21;;;;;;;22.33;12.63;;;3.40;99.90;;;;;;5014020;28;20486;-74
2021/03/01 00:44:47;;;;;;;19.58;12.55;;;3.40;99.90;;;;;;5014877;28;20045;-73
2021/03/01 00:47:12;;;;;;;20.15;12.80;;;3.40;99.90;;;;;;5014335;28;20429;-73
2021/03/01 00:49:38;;;;;;;17.83;12.15;;;3.40;99.90;;;;;;5013247;28;20068;-73
2021/03/01 00:52:04;;;;;;;19.80;13.50;;;3.50;99.90;;;;;;5014421;28;20112;-73
2021/03/01 00:54:29;;;;;;;20.67;12.77;;;3.50;99.90;;;;;;5014280;28;20470;-73
2021/03/01 00:56:55;;;;;;;19.40;13.18;;;3.50;99.90;;;;;;5013802;28;20080;-74
2021/03/01 00:59:20;;;;;;;23.98;14.45;;;3.60;99.90;;;;;;5014703;28;20040;-73
2021/03/01 01:01:46;;;;;;;20.73;14.70;;;3.60;99.90;;;;;;5014632;28;20034;-72
2021/03/01 01:04:12;;;;;;;24.40;15.65;;;3.60;99.90;;;;;;5013456;28;20022;-75
2021/03/01 01:06:37;;;;;;;37.63;16.50;;;3.70;99.90;;;;;;5013779;28;20478;-73
2021/03/01 01:09:03;;;;;;;27.58;16.58;;;3.60;99.90;;;;;;5002441;28;20427;-73
2021/03/01 01:11:29;;;;;;;27.50;16.23;;;3.70;99.90;;;;;;5011929;28;20049;-75
2021/03/01 01:13:54;;;;;;;36.38;17.60;;;3.70;99.90;;;;;;5018513;28;20018;-73
2021/03/01 01:16:20;;;;;;;28.27;17.58;;;3.80;99.90;;;;;;5014171;28;20113;-73
2021/03/01 01:18:46;;;;;;;37.75;17.35;;;3.90;99.90;;;;;;5013292;28;20037;-73
2021/03/01 01:21:11;;;;;;;36.08;17.58;;;3.90;99.90;;;;;;5013931;28;20527;-74
2021/03/01 01:23:37;;;;;;;30.13;17.20;;;4.00;99.90;;;;;;5014028;28;20159;-73
2021/03/01 01:26:03;;;;;;;33.10;17.85;;;4.00;99.90;;;;;;5013186;28;20028;-74
2021/03/01 01:28:28;;;;;;;35.72;18.60;;;4.00;99.90;;;;;;5013552;28;20034;-74
2021/03/01 01:30:54;;;;;;;32.05;18.25;;;4.10;99.90;;;;;;5012690;28;20026;-73
2021/03/01 01:33:20;;;;;;;39.72;19.42;;;4.10;99.90;;;;;;5012446;28;20466;-72
2021/03/01 01:35:45;;;;;;;34.75;19.40;;;4.10;99.90;;;;;;5012996;28;20030;-72
2021/03/01 01:38:11;;;;;;;43.80;19.42;;;4.10;99.90;;;;;;5012525;28;20014;-74
2021/03/01 01:40:37;;;;;;;44.15;21.13;;;4.20;99.90;;;;;;5012310;28;20117;-73
2021/03/01 01:43:03;;;;;;;39.75;19.40;;;4.20;99.90;;;;;;5014571;28;20025;-73
2021/03/01 01:45:29;;;;;;;42.17;19.55;;;4.30;99.90;;;;;;5015468;28;20137;-73
2021/03/01 01:47:55;;;;;;;42.10;20.55;;;4.30;99.90;;;;;;5013320;28;20038;-74
2021/03/01 01:50:22;;;;;;;37.35;19.30;;;4.30;99.90;;;;;;5013632;28;20095;-73
2021/03/01 01:52:49;;;;;;;51.90;19.40;;;4.30;99.90;;;;;;5012864;28;20034;-73
2021/03/01 01:55:16;;;;;;;32.38;19.38;;;4.30;99.90;;;;;;5013368;28;20459;-73
2021/03/01 01:57:42;;;;;;;36.92;19.15;;;4.40;99.90;;;;;;4999762;28;20033;-72
2021/03/01 02:00:16;;;;;;;37.20;20.42;;;4.30;99.90;;;;;;5012589;28;20021;-73
2021/03/01 02:02:42;;;;;;;37.80;20.48;;;4.40;99.90;;;;;;5013523;28;20113;-73
2021/03/01 02:05:09;;;;;;;32.95;20.00;;;4.40;99.90;;;;;;5013307;28;20542;-73
2021/03/01 02:08:01;;;;;;;35.25;20.27;;;4.50;99.90;;;;;;5012617;28;20057;-73
2021/03/01 02:10:43;;;;;;;33.80;18.73;;;4.50;99.90;;;;;;5013539;28;20466;-72
2021/03/01 02:13:14;;;;;;;46.83;21.38;;;4.50;99.90;;;;;;5013286;28;20021;-73
2021/03/01 02:15:43;;;;;;;41.58;21.23;;;4.50;99.90;;;;;;5016234;28;20029;-73
2021/03/01 02:18:09;;;;;;;38.15;20.02;;;4.50;99.90;;;;;;5013021;28;20057;-73
2021/03/01 02:20:38;;;;;;;35.47;19.65;;;4.50;99.90;;;;;;5023124;28;20437;-73
2021/03/01 02:23:04;;;;;;;37.55;18.98;;;4.60;99.90;;;;;;5012504;28;20034;-73
2021/03/01 02:25:30;;;;;;;30.17;18.88;;;4.60;99.90;;;;;;5012397;28;20024;-72
2021/03/01 02:28:06;;;;;;;36.58;20.17;;;4.60;99.90;;;;;;5011859;28;20042;-72
2021/03/01 02:30:34;;;;;;;35.38;20.35;;;4.60;99.90;;;;;;5012609;28;20026;-72
2021/03/01 02:33:08;;;;;;;34.45;19.23;;;4.60;99.90;;;;;;5012522;28;20030;-73
2021/03/01 02:35:37;;;;;;;36.35;19.23;;;4.60;99.90;;;;;;5012184;28;20054;-73
2021/03/01 02:38:07;;;;;;;36.63;20.27;;;4.70;99.90;;;;;;5012379;28;20025;-72
2021/03/01 02:40:35;;;;;;;35.23;18.87;;;4.70;99.90;;;;;;5012585;28;20044;-73
2021/03/01 02:43:03;;;;;;;33.45;20.02;;;4.60;99.90;;;;;;5011635;28;20614;-73
2021/03/01 02:45:29;;;;;;;33.60;19.27;;;4.70;99.90;;;;;;5012556;28;20026;-73
2021/03/01 02:47:57;;;;;;;41.08;19.48;;;4.70;99.90;;;;;;5012319;28;20050;-74
2021/03/01 02:50:25;;;;;;;31.98;19.10;;;4.70;99.90;;;;;;5011952;28;20492;-72
2021/03/01 02:52:52;;;;;;;31.98;18.30;;;4.70;99.90;;;;;;5012487;28;20104;-73
2021/03/01 02:55:19;;;;;;;32.85;17.80;;;4.70;99.90;;;;;;5012137;28;20030;-73
2021/03/01 02:57:45;;;;;;;37.70;18.40;;;4.80;99.90;;;;;;5011484;28;20104;-73
2021/03/01 03:00:12;;;;;;;34.88;18.20;;;4.80;99.90;;;;;;5011914;28;20034;-73
2021/03/01 03:02:40;;;;;;;37.97;18.02;;;4.80;99.90;;;;;;5012446;28;20045;-72
2021/03/01 03:05:08;;;;;;;34.22;17.35;;;4.80;99.90;;;;;;5011351;28;20428;-72
2021/03/01 03:07:37;;;;;;;29.98;17.25;;;4.80;99.90;;;;;;5011373;28;20041;-72
2021/03/01 03:10:04;;;;;;;36.42;16.48;;;4.80;99.90;;;;;;5011127;28;20072;-72
2021/03/01 03:12:31;;;;;;;34.22;17.38;;;4.80;99.90;;;;;;5011614;28;20038;-73
2021/03/01 03:14:58;;;;;;;31.85;15.93;;;4.80;99.90;;;;;;5006092;28;20542;-73
2021/03/01 03:17:25;;;;;;;36.60;17.75;;;4.80;99.90;;;;;;5010540;28;20465;-73
2021/03/01 03:19:50;;;;;;;30.52;17.20;;;4.80;99.90;;;;;;5010363;28;20018;-74
2021/03/01 03:22:16;;;;;;;29.88;16.52;;;4.80;99.90;;;;;;5011611;28;20033;-73
2021/03/01 03:24:42;;;;;;;27.02;16.33;;;4.80;99.90;;;;;;5010629;28;20037;-73
2021/03/01 03:27:07;;;;;;;36.10;15.43;;;4.80;99.90;;;;;;5011220;28;20424;-73
2021/03/01 03:29:33;;;;;;;32.15;15.88;;;4.70;99.90;;;;;;5011209;28;20022;-73
2021/03/01 03:31:58;;;;;;;33.42;15.77;;;4.80;99.90;;;;;;5010473;28;20026;-73
2021/03/01 03:34:24;;;;;;;27.48;16.40;;;4.80;99.90;;;;;;5011183;28;20425;-73
2021/03/01 03:37:04;;;;;;;29.98;15.82;;;4.80;99.90;;;;;;5011278;28;20076;-72
2021/03/01 03:39:34;;;;;;;34.72;16.85;;;4.80;99.90;;;;;;5010732;28;20093;-73
2021/03/01 03:42:00;;;;;;;26.20;15.02;;;4.80;99.90;;;;;;5011158;28;20050;-73
2021/03/01 03:44:28;;;;;;;25.45;15.35;;;4.80;99.90;;;;;;5011227;28;20030;-73
2021/03/01 03:46:54;;;;;;;29.60;15.60;;;4.80;99.90;;;;;;5010757;28;20076;-72
2021/03/01 03:49:20;;;;;;;33.42;16.67;;;4.80;99.90;;;;;;5010900;28;20041;-73
2021/03/01 03:51:48;;;;;;;34.90;16.85;;;4.80;99.90;;;;;;5011709;28;20079;-73
2021/03/01 03:54:20;;;;;;;30.02;15.50;;;4.80;99.90;;;;;;5011140;28;20033;-73
2021/03/01 03:56:52;;;;;;;28.83;15.25;;;4.80;99.90;;;;;;5011880;28;20030;-73
2021/03/01 03:59:19;;;;;;;28.88;15.57;;;4.80;99.90;;;;;;5011061;28;20144;-74
2021/03/01 04:01:51;;;;;;;32.90;15.65;;;4.80;99.90;;;;;;5011863;28;20034;-74
2021/03/01 04:04:19;;;;;;;32.03;16.85;;;4.80;99.90;;;;;;5011938;28;20022;-74
2021/03/01 04:06:45;;;;;;;34.00;16.70;;;4.80;99.90;;;;;;5012056;28;20037;-72
2021/03/01 04:09:12;;;;;;;30.45;17.70;;;4.80;99.90;;;;;;5013441;28;20018;-74
2021/03/01 04:11:41;;;;;;;34.80;16.85;;;4.80;99.90;;;;;;5013569;28;20022;-75
2021/03/01 04:14:08;;;;;;;32.85;17.83;;;4.80;99.90;;;;;;5013539;28;20026;-74
2021/03/01 04:16:36;;;;;;;32.85;17.30;;;4.80;99.90;;;;;;5012634;28;20026;-74
2021/03/01 04:19:05;;;;;;;34.42;17.73;;;4.80;99.90;;;;;;5012781;28;20057;-74
2021/03/01 04:21:33;;;;;;;33.40;18.17;;;4.80;99.90;;;;;;5020102;28;20030;-74
2021/03/01 04:24:00;;;;;;;35.22;17.00;;;4.80;99.90;;;;;;5011285;28;20022;-73
2021/03/01 04:26:26;;;;;;;35.88;18.40;;;4.80;99.90;;;;;;5015084;28;20108;-73
2021/03/01 04:28:52;;;;;;;37.63;19.13;;;4.80;99.90;;;;;;5014140;28;20113;-74
2021/03/01 04:31:19;;;;;;;32.97;17.80;;;4.80;99.90;;;;;;5014822;28;20068;-74
2021/03/01 04:33:47;;;;;;;38.10;18.40;;;4.80;99.90;;;;;;5015546;28;20038;-73
2021/03/01 04:36:14;;;;;;;39.28;18.33;;;4.80;99.90;;;;;;5014183;28;20029;-73
2021/03/01 04:38:40;;;;;;;38.20;19.05;;;4.80;99.90;;;;;;5015160;28;20092;-73
2021/03/01 04:41:06;;;;;;;37.78;19.13;;;4.80;99.90;;;;;;5000618;28;20030;-73
2021/03/01 04:43:35;;;;;;;40.33;18.88;;;4.80;99.90;;;;;;5022346;28;20121;-74
2021/03/01 04:46:03;;;;;;;42.37;19.00;;;4.90;99.90;;;;;;5020293;28;20607;-73
2021/03/01 04:48:30;;;;;;;34.40;17.60;;;4.90;99.90;;;;;;5014281;28;20590;-72
2021/03/01 04:50:57;;;;;;;34.25;18.10;;;4.90;99.90;;;;;;5014015;28;20042;-74
2021/03/01 04:53:23;;;;;;;40.33;19.48;;;4.90;99.90;;;;;;5015674;28;20026;-72
2021/03/01 04:55:55;;;;;;;39.55;19.15;;;4.90;99.90;;;;;;5019003;28;20025;-74
2021/03/01 04:58:22;;;;;;;42.05;20.38;;;4.90;99.90;;;;;;5014511;28;20026;-74
2021/03/01 05:00:47;;;;;;;33.20;17.27;;;4.90;99.90;;;;;;5014327;28;20041;-73
2021/03/01 05:03:13;;;;;;;38.53;19.08;;;4.90;99.90;;;;;;5013586;28;20022;-72
2021/03/01 05:05:41;;;;;;;36.08;18.58;;;4.90;99.90;;;;;;5014115;28;20029;-73
2021/03/01 05:08:14;;;;;;;40.38;20.17;;;4.90;99.90;;;;;;5013664;28;20053;-72
2021/03/01 05:10:40;;;;;;;44.53;20.10;;;4.90;99.90;;;;;;5013694;28;20480;-72
2021/03/01 05:13:06;;;;;;;43.50;18.70;;;4.90;99.90;;;;;;4999406;28;20108;-73
2021/03/01 05:15:32;;;;;;;35.33;17.75;;;4.80;99.90;;;;;;5014476;28;20050;-73
2021/03/01 05:17:58;;;;;;;46.70;20.73;;;4.80;99.90;;;;;;5013612;28;20018;-74
2021/03/01 05:20:24;;;;;;;38.90;19.33;;;4.90;99.90;;;;;;5029107;28;20053;-73
2021/03/01 05:22:50;;;;;;;39.85;19.73;;;4.90;99.90;;;;;;5014253;28;20026;-73
2021/03/01 05:25:16;;;;;;;40.90;19.48;;;4.90;99.90;;;;;;5012922;28;20092;-73
2021/03/01 05:27:41;;;;;;;39.72;19.58;;;4.80;99.90;;;;;;5013696;28;20370;-73
2021/03/01 05:30:09;;;;;;;41.95;19.55;;;4.80;99.90;;;;;;5013593;28;20037;-73
2021/03/01 05:32:35;;;;;;;38.33;18.67;;;4.80;99.90;;;;;;5013370;28;20025;-73
2021/03/01 05:35:01;;;;;;;39.83;18.85;;;4.90;99.90;;;;;;5013340;28;20056;-73
2021/03/01 05:37:27;;;;;;;40.97;19.17;;;4.80;99.90;;;;;;5013661;28;20026;-73
2021/03/01 05:39:52;;;;;;;39.25;19.90;;;4.80;99.90;;;;;;5012878;28;20026;-73
2021/03/01 05:42:20;;;;;;;39.85;18.98;;;4.80;99.90;;;;;;5013167;28;20080;-73
2021/03/01 05:44:46;;;;;;;44.40;20.05;;;4.80;99.90;;;;;;5013061;28;20052;-73
2021/03/01 05:47:13;;;;;;;43.00;20.05;;;4.80;99.90;;;;;;5013412;28;20042;-72
2021/03/01 05:49:42;;;;;;;41.67;20.20;;;4.80;99.90;;;;;;5013441;28;20022;-72
2021/03/01 05:52:09;;;;;;;46.03;20.38;;;4.80;99.90;;;;;;5012659;28;20417;-73
2021/03/01 05:54:36;;;;;;;43.30;19.05;;;4.80;99.90;;;;;;5013341;28;20017;-73
2021/03/01 05:57:05;;;;;;;40.03;19.95;;;4.80;99.90;;;;;;5013012;28;20437;-73
2021/03/01 05:59:31;;;;;;;46.20;20.05;;;4.90;99.90;;;;;;5011346;28;20378;-73
2021/03/01 06:01:57;;;;;;;42.75;20.77;;;4.90;99.90;;;;;;5003033;28;20119;-73
2021/03/01 06:04:23;;;;;;;40.53;19.67;;;4.90;99.90;;;;;;5020508;28;20018;-74
2021/03/01 06:06:49;;;;;;;42.92;19.23;;;4.80;99.90;;;;;;5018877;28;20053;-73
2021/03/01 06:09:15;;;;;;;49.85;22.70;;;4.80;99.90;;;;;;5015696;28;20036;-73
2021/03/01 06:11:40;;;;;;;45.85;21.38;;;4.80;99.90;;;;;;5013300;28;20026;-73
2021/03/01 06:14:06;;;;;;;41.20;20.25;;;4.80;99.90;;;;;;5012660;28;20076;-73
2021/03/01 06:16:32;;;;;;;46.67;21.02;;;4.80;99.90;;;;;;5014265;28;20045;-75
2021/03/01 06:18:58;;;;;;;40.42;20.58;;;4.80;99.90;;;;;;5012631;28;20393;-73
2021/03/01 06:21:24;;;;;;;39.60;19.13;;;4.70;99.90;;;;;;5011586;28;20037;-74
2021/03/01 06:23:51;;;;;;;42.78;19.38;;;4.70;99.90;;;;;;5012012;28;20033;-74
2021/03/01 06:26:27;;;;;;;45.45;20.92;;;4.80;99.90;;;;;;5011743;28;20080;-73
2021/03/01 06:29:08;;;;;;;45.08;21.38;;;4.80;99.90;;;;;;5011213;28;20028;-73
2021/03/01 06:31:37;;;;;;;42.05;19.65;;;4.70;99.90;;;;;;5012714;28;20025;-74
2021/03/01 06:34:24;;;;;;;45.58;20.95;;;4.70;99.90;;;;;;5012679;28;20030;-73
2021/03/01 06:37:16;;;;;;;39.22;19.63;;;4.80;99.90;;;;;;5011857;28;20032;-73
2021/03/01 06:39:42;;;;;;;46.28;20.27;;;4.80;99.90;;;;;;5010397;28;20044;-73
2021/03/01 06:42:16;;;;;;;39.70;19.55;;;4.80;99.90;;;;;;5010303;28;20382;-73
2021/03/01 06:45:08;;;;;;;44.28;20.40;;;4.80;99.90;;;;;;5013672;28;20110;-72
2021/03/01 06:47:53;;;;;;;43.58;20.20;;;4.80;99.90;;;;;;5007896;28;20068;-74
2021/03/01 06:50:24;;;;;;;42.53;19.80;;;4.80;99.90;;;;;;5010600;28;20029;-74
2021/03/01 06:52:49;;;;;;;39.85;18.42;;;4.90;99.90;;;;;;5011153;28;20117;-73
2021/03/01 06:55:16;;;;;;;41.15;19.70;;;4.80;99.90;;;;;;5013560;28;20458;-72
2021/03/01 06:57:41;;;;;;;43.03;18.23;;;4.80;99.90;;;;;;5016769;28;20026;-72
2021/03/01 07:00:07;;;;;;;40.08;20.17;;;4.90;99.90;;;;;;5010097;28;20041;-74
2021/03/01 07:02:43;;;;;;;37.20;17.83;;;4.80;99.90;;;;;;5008945;28;20026;-73
2021/03/01 07:05:09;;;;;;;40.17;19.42;;;4.80;99.90;;;;;;5011638;28;20033;-73
2021/03/01 07:07:36;;;;;;;38.78;18.60;;;4.80;99.90;;;;;;5011527;28;20413;-73
2021/03/01 07:10:04;;;;;;;38.75;19.48;;;4.90;99.90;;;;;;5011058;28;20030;-73
2021/03/01 07:12:41;;;;;;;40.22;19.98;;;4.90;99.90;;;;;;5009707;28;20457;-73
2021/03/01 07:15:11;;;;;;;37.70;18.88;;;4.90;99.90;;;;;;5011570;28;20485;-72
2021/03/01 07:17:38;;;;;;;42.22;20.10;;;4.90;99.90;;;;;;5011688;28;20117;-73
2021/03/01 07:20:09;;;;;;;37.78;19.52;;;5.00;99.90;;;;;;5009061;28;20165;-73
2021/03/01 07:22:38;;;;;;;35.40;18.33;;;4.90;99.90;;;;;;5012006;28;20049;-73
2021/03/01 07:25:05;;;;;;;40.25;18.70;;;5.00;99.90;;;;;;5010157;28;20040;-73
2021/03/01 07:27:38;;;;;;;36.60;19.13;;;5.00;99.90;;;;;;5008432;28;20022;-74
2021/03/01 07:30:05;;;;;;;43.08;19.23;;;5.00;99.90;;;;;;5010992;28;20382;-73
2021/03/01 07:32:31;;;;;;;35.40;18.55;;;5.00;99.90;;;;;;5008095;28;20026;-73
2021/03/01 07:34:57;;;;;;;40.83;20.08;;;5.00;99.90;;;;;;5010998;28;20478;-74
2021/03/01 07:37:22;;;;;;;37.90;19.10;;;5.00;99.90;;;;;;5010499;28;20462;-73
2021/03/01 07:39:48;;;;;;;40.08;20.17;;;5.00;99.90;;;;;;5011014;28;20022;-79
2021/03/01 07:42:15;;;;;;;41.20;19.08;;;5.00;99.90;;;;;;5010121;28;20033;-78
2021/03/01 07:44:44;;;;;;;38.63;20.80;;;5.00;99.90;;;;;;5009827;28;20109;-79
2021/03/01 07:47:10;;;;;;;31.65;17.08;;;5.00;99.90;;;;;;5010785;28;20030;-78
2021/03/01 07:49:48;;;;;;;33.15;18.33;;;5.10;99.90;;;;;;5008962;28;20029;-79
2021/03/01 07:52:19;;;;;;;39.47;19.42;;;5.10;99.90;;;;;;5010347;28;20102;-79
2021/03/01 07:54:58;;;;;;;31.48;17.45;;;5.20;99.90;;;;;;5010724;28;20420;-80
2021/03/01 07:57:28;;;;;;;37.70;18.85;;;5.20;99.90;;;;;;5008919;28;20032;-78
2021/03/01 07:59:57;;;;;;;35.13;18.92;;;5.20;99.90;;;;;;5012381;28;20084;-78
2021/03/01 08:02:32;;;;;;;35.97;18.63;;;5.20;99.90;;;;;;5015207;28;20040;-79
2021/03/01 08:04:59;;;;;;;37.70;18.42;;;5.30;99.90;;;;;;5014976;28;20026;-78
2021/03/01 08:07:44;;;;;;;38.90;19.23;;;5.30;99.90;;;;;;5014693;28;20085;-81
2021/03/01 08:10:31;;;;;;;35.42;18.55;;;5.30;99.90;;;;;;5012824;28;20030;-80
2021/03/01 08:12:59;;;;;;;37.03;19.27;;;5.30;99.90;;;;;;5013663;28;20479;-79
2021/03/01 08:15:27;;;;;;;38.10;20.45;;;5.30;99.90;;;;;;5016236;28;20437;-80
2021/03/01 08:17:53;;;;;;;38.35;19.77;;;5.30;99.90;;;;;;5021983;28;20105;-82
2021/03/01 08:20:24;;;;;;;37.22;19.65;;;5.60;99.90;;;;;;5012985;28;20049;-81
2021/03/01 08:23:02;;;;;;;36.30;19.63;;;5.30;99.90;;;;;;5012828;28;20046;-81
2021/03/01 08:25:48;;;;;;;37.65;19.15;;;5.40;99.90;;;;;;5016533;28;20036;-79
2021/03/01 08:28:26;;;;;;;36.38;20.73;;;5.40;99.90;;;;;;5015464;28;20378;-81
2021/03/01 08:31:15;;;;;;;32.20;18.67;;;5.40;99.90;;;;;;5013943;28;20068;-81
2021/03/01 08:33:41;;;;;;;36.95;20.17;;;5.40;99.90;;;;;;5013996;28;20120;-81
2021/03/01 08:36:09;;;;;;;39.38;21.33;;;5.40;99.90;;;;;;5015021;28;20116;-82
2021/03/01 08:38:41;;;;;;;34.22;17.55;;;5.40;99.90;;;;;;5018438;28;20026;-83
2021/03/01 08:41:09;;;;;;;34.38;20.33;;;5.50;99.90;;;;;;5015744;28;20036;-79
2021/03/01 08:43:43;;;;;;;39.13;19.45;;;5.50;99.90;;;;;;5016896;28;20026;-80
2021/03/01 08:46:19;;;;;;;34.10;19.13;;;5.40;99.90;;;;;;5015478;28;20378;-81
2021/03/01 08:48:49;;;;;;;40.88;21.30;;;5.50;99.90;;;;;;5014556;28;20093;-81
2021/03/01 08:51:15;;;;;;;39.78;21.35;;;5.40;99.90;;;;;;5014989;28;20033;-84
2021/03/01 08:53:43;;;;;;;44.95;23.10;;;5.40;99.90;;;;;;5012198;28;20030;-78
2021/03/01 08:56:18;;;;;;;40.22;20.27;;;5.50;99.90;;;;;;5011392;28;20026;-80
2021/03/01 08:58:44;;;;;;;42.72;21.70;;;5.40;99.90;;;;;;5011662;28;20029;-79
2021/03/01 09:01:09;;;;;;;40.70;21.67;;;5.40;99.90;;;;;;5012257;28;20084;-80
2021/03/01 09:03:36;;;;;;;41.90;21.75;;;5.50;99.90;;;;;;5012403;28;20038;-78
2021/03/01 09:06:03;;;;;;;37.45;20.52;;;5.50;99.90;;;;;;5012634;28;20108;-78
2021/03/01 09:08:53;;;;;;;47.03;21.55;;;5.50;99.90;;;;;;5012502;28;20054;-78
2021/03/01 09:11:24;;;;;;;40.38;20.92;;;5.60;99.90;;;;;;5011681;28;20038;-76
2021/03/01 09:14:03;;;;;;;39.55;20.40;;;5.60;99.90;;;;;;5011372;28;20100;-79
2021/03/01 09:16:31;;;;;;;43.53;20.17;;;5.60;99.90;;;;;;5012439;28;20367;-79
2021/03/01 09:19:05;;;;;;;39.95;18.88;;;5.60;99.90;;;;;;5012410;28;20092;-78
2021/03/01 09:21:34;;;;;;;36.88;18.40;;;5.70;99.90;;;;;;5011901;28;20037;-78
2021/03/01 09:24:00;;;;;;;31.45;18.35;;;5.60;99.90;;;;;;5013400;28;20093;-80
2021/03/01 09:26:45;;;;;;;35.28;19.25;;;5.60;99.90;;;;;;5011888;28;20042;-78
2021/03/01 09:29:15;;;;;;;35.30;17.80;;;5.60;99.90;;;;;;5008122;28;20025;-79
2021/03/01 09:31:45;;;;;;;32.70;17.60;;;5.60;99.90;;;;;;5010405;28;20122;-78
2021/03/01 09:34:15;;;;;;;31.85;18.67;;;5.60;99.90;;;;;;5012620;28;20117;-79
2021/03/01 09:36:43;;;;;;;;;;;5.70;99.90;;;;;;5012444;28;20048;-81
2021/03/01 09:39:09;;;;;;;34.35;17.20;;;5.70;99.90;;;;;;5011585;28;20361;-79
2021/03/01 09:41:39;;;;;;;31.95;18.15;;;5.80;99.90;;;;;;5012530;28;20036;-78
2021/03/01 09:44:05;;;;;;;31.93;17.80;;;5.80;99.90;;;;;;5008104;28;20482;-80
2021/03/01 09:46:32;;;;;;;31.27;17.55;;;5.80;99.90;;;;;;5011956;28;20113;-79
2021/03/01 09:49:01;;;;;;;32.33;17.40;;;5.90;99.90;;;;;;5012568;28;21619;-80
2021/03/01 09:51:28;;;;;;;33.47;18.10;;;5.90;99.90;;;;;;5011698;28;20030;-80
2021/03/01 09:54:05;;;;;;;29.63;16.70;;;5.90;99.90;;;;;;5012800;28;20473;-81
2021/03/01 09:56:41;;;;;;;34.85;16.20;;;6.00;99.90;;;;;;5010602;28;20042;-80
2021/03/01 09:59:07;;;;;;;33.17;18.65;;;6.00;99.90;;;;;;5011438;28;20029;-80
2021/03/01 10:01:32;;;;;;;35.30;18.50;;;6.00;99.90;;;;;;5012500;28;20046;-80
2021/03/01 10:03:58;;;;;;;32.38;18.45;;;6.10;99.90;;;;;;5009163;28;20025;-79
2021/03/01 10:06:42;;;;;;;35.08;17.30;;;6.10;99.90;;;;;;5009591;28;20121;-80
2021/03/01 10:09:12;;;;;;;34.83;18.27;;;6.20;99.90;;;;;;5009561;28;20053;-80
2021/03/01 10:11:39;;;;;;;34.27;18.97;;;6.20;99.90;;;;;;5010715;28;20026;-80
2021/03/01 10:14:11;;;;;;;38.10;20.00;;;6.20;99.90;;;;;;5009806;28;20517;-79
2021/03/01 10:16:41;;;;;;;37.97;19.55;;;6.20;99.90;;;;;;5012751;28;20031;-80
2021/03/01 10:19:13;;;;;;;41.42;20.55;;;6.20;99.90;;;;;;5012268;28;20030;-80
2021/03/01 10:21:39;;;;;;;38.47;20.88;;;6.20;99.90;;;;;;5019557;28;20038;-81
2021/03/01 10:24:07;;;;;;;39.95;19.83;;;6.30;99.90;;;;;;5018961;28;20014;-79
2021/03/01 10:26:33;;;;;;;41.17;20.42;;;6.30;99.90;;;;;;5020423;28;20060;-78
2021/03/01 10:29:01;;;;;;;34.53;19.95;;;6.30;99.90;;;;;;5014265;28;20053;-81
2021/03/01 10:31:33;;;;;;;33.03;17.80;;;6.30;99.90;;;;;;5015716;28;20041;-79
2021/03/01 10:34:07;;;;;;;37.28;18.17;;;6.40;99.90;;;;;;5012129;28;20025;-79
2021/03/01 10:36:34;;;;;;;33.67;16.23;;;6.40;99.90;;;;;;5012325;28;20432;-79
2021/03/01 10:39:06;;;;;;;26.45;14.98;;;6.40;99.90;;;;;;5012797;28;20471;-76
2021/03/01 10:41:40;;;;;;;31.08;16.52;;;6.40;99.90;;;;;;5010671;28;20049;-78
2021/03/01 10:44:07;;;;;;;26.48;16.05;;;6.40;99.90;;;;;;5011725;28;20026;-77
2021/03/01 10:46:40;;;;;;;33.55;18.27;;;6.40;99.90;;;;;;5008596;28;20040;-78
2021/03/01 10:49:28;;;;;;;27.92;17.33;;;6.40;99.90;;;;;;5010176;28;20021;-77
2021/03/01 10:51:55;;;;;;;33.25;16.83;;;6.50;99.90;;;;;;5008228;28;20068;-76
2021/03/01 10:54:22;;;;;;;30.63;16.70;;;6.50;99.90;;;;;;5010019;28;20076;-76
2021/03/01 10:56:48;;;;;;;30.70;16.83;;;6.50;99.90;;;;;;5009802;28;20037;-79
2021/03/01 10:59:14;;;;;;;32.58;17.20;;;6.60;99.90;;;;;;5010139;28;20021;-79
2021/03/01 11:01:42;;;;;;;34.15;17.45;;;6.70;99.90;;;;;;5010139;28;20095;-78
2021/03/01 11:04:10;;;;;;;27.65;15.70;;;6.70;99.90;;;;;;5008784;28;20115;-77
2021/03/01 11:06:36;;;;;;;29.17;16.23;;;6.80;99.90;;;;;;5008117;28;20018;-79
2021/03/01 11:09:04;;;;;;;28.92;16.58;;;6.80;99.90;;;;;;5006261;28;20042;-79
2021/03/01 11:11:30;;;;;;;29.00;16.60;;;6.80;99.90;;;;;;5010281;28;20124;-79
2021/03/01 11:13:55;;;;;;;32.92;17.13;;;6.90;99.90;;;;;;5010313;28;20155;-80
2021/03/01 11:16:27;;;;;;;34.30;17.92;;;6.90;99.90;;;;;;5009785;28;20026;-79
2021/03/01 11:18:53;;;;;;;31.15;15.48;;;6.90;99.90;;;;;;5009722;28;20022;-79
2021/03/01 11:21:19;;;;;;;34.97;16.42;;;6.90;99.90;;;;;;5010025;28;20088;-80
2021/03/01 11:23:45;;;;;;;28.40;15.18;;;7.00;99.90;;;;;;5009481;28;20026;-79
2021/03/01 11:26:11;;;;;;;28.50;15.88;;;7.10;99.90;;;;;;5010136;28;20033;-77
2021/03/01 11:28:36;;;;;;;27.27;15.00;;;7.10;99.90;;;;;;5011848;28;20124;-78
2021/03/01 11:31:02;;;;;;;29.42;16.83;;;7.20;99.90;;;;;;5011615;28;20022;-76
2021/03/01 11:33:29;;;;;;;30.42;17.15;;;7.20;99.90;;;;;;5011533;28;20107;-77
2021/03/01 11:35:55;;;;;;;28.48;15.60;;;7.20;99.90;;;;;;5015133;28;20022;-77
2021/03/01 11:38:22;;;;;;;32.65;15.88;;;7.30;99.90;;;;;;5014218;28;20029;-77
2021/03/01 11:40:48;;;;;;;33.50;15.55;;;7.30;99.90;;;;;;5014376;28;20038;-77
2021/03/01 11:43:14;;;;;;;32.85;15.20;;;7.40;99.90;;;;;;5014699;28;20091;-78
2021/03/01 11:45:39;;;;;;;28.52;16.40;;;7.50;99.90;;;;;;5013763;28;20030;-75
2021/03/01 11:48:05;;;;;;;27.30;15.60;;;7.60;99.90;;;;;;5014487;28;20026;-78
2021/03/01 11:50:31;;;;;;;27.23;15.60;;;7.70;99.90;;;;;;5012940;28;20045;-78
2021/03/01 11:52:56;;;;;;;34.60;17.27;;;7.70;99.90;;;;;;5013584;28;20505;-78
2021/03/01 11:55:22;;;;;;;27.33;15.52;;;7.70;99.90;;;;;;5013722;28;20030;-78
2021/03/01 11:57:48;;;;;;;25.50;15.27;;;7.80;99.90;;;;;;5012255;28;20076;-78
2021/03/01 12:00:16;;;;;;;27.10;16.25;;;7.70;99.90;;;;;;5012080;28;20315;-78
2021/03/01 12:02:42;;;;;;;29.35;16.35;;;7.80;99.90;;;;;;5012940;28;20057;-79
2021/03/01 12:05:08;;;;;;;25.48;15.20;;;7.80;99.90;;;;;;5012214;28;20022;-79
2021/03/01 12:07:35;;;;;;;29.73;16.08;;;7.80;99.90;;;;;;5012763;28;20060;-78
2021/03/01 12:10:02;;;;;;;27.17;16.25;;;7.80;99.90;;;;;;5014051;28;20018;-79
2021/03/01 12:12:27;;;;;;;29.45;16.17;;;8.00;99.90;;;;;;5013941;28;20393;-79
2021/03/01 12:14:53;;;;;;;25.83;15.80;;;8.00;99.90;;;;;;5014235;28;20020;-79
2021/03/01 12:17:20;;;;;;;26.17;16.15;;;8.10;99.90;;;;;;5014022;28;20033;-79
2021/03/01 12:19:45;;;;;;;30.08;17.25;;;8.10;99.90;;;;;;5013489;28;20034;-80
2021/03/01 12:22:11;;;;;;;28.58;16.63;;;8.00;99.90;;;;;;5013589;28;20375;-78
2021/03/01 12:24:37;;;;;;;29.10;15.90;;;7.90;99.90;;;;;;5013764;28;20492;-79
2021/03/01 12:27:05;;;;;;;26.77;14.88;;;8.00;99.90;;;;;;5013177;28;20417;-80
2021/03/01 12:29:31;;;;;;;29.13;16.38;;;8.00;99.90;;;;;;5014819;28;20055;-79
2021/03/01 12:31:56;;;;;;;30.60;15.52;;;8.00;99.90;;;;;;5013975;28;20026;-78
2021/03/01 12:34:22;;;;;;;26.05;16.33;;;8.10;99.90;;;;;;5013576;28;20022;-78
2021/03/01 12:36:48;;;;;;;24.58;14.55;;;8.10;99.90;;;;;;5014201;28;20057;-78
2021/03/01 12:39:13;;;;;;;29.08;17.08;;;8.20;99.90;;;;;;5013769;28;20022;-78
2021/03/01 12:41:39;;;;;;;27.63;15.63;;;8.10;99.90;;;;;;5013015;28;20474;-77
2021/03/01 12:44:05;;;;;;;26.83;14.52;;;8.20;99.90;;;;;;5012889;28;20029;-79